Etusivu
METAR-TAF:

METAR-TAF

Lentoasemat :

El Palmar

Santa Ana, El Salvador

Leveyspiiri: 13-59N, Pituuspiiri: 089-34W, korkeus merenpinnasta: 725 m

Tämänhetkinen sää

Tämä raportti tehtiin 11 tuntia ja 14 minuuttia sitten, kello 22.50 UTC
Tuuli 4 kn etelästä/kaakosta
Lämpötila 29°C
Kosteus 48%
Ilmanpaine 1015 hPa
Näkyvyys 10 km tai enemmän
Muutamia pilviä 3700 ft:n korkeudessa

METAR: MSSA 242250Z 15004KT 9999 FEW037 29/17 Q1014 A2996

Aika: 04:04 (10:04 UTC)


TAF: puuttuu

Säähavainnot ja -ennusteet yli 4000 lentoasemalta (METAR- ja TAF-raportit).

Käytössä olevat sääasemat on merkitty karttaan keltaisilla ja punaisilla pisteillä.

Aseta hiiri pisteen päälle nähdäksesi sääaseman nimen.

Klikkaa sitten nähdäksesi säähavainnot ja -ennusteet.

Kartan vaihtaminen: klikkaa mustalla rastilla varustettuja vihreitä pisteitä, niin voit zoomata sisään; viivalla varustettua vihreää pistettä, niin voit zoomata ulos tai vihreitä nuolia, niin pääset viereisille kartoille.


METAR-TAF: